Time;durP1;ratioP1;P1;durP2;ratioP2;P2;SDS_P1;SDS_P2;PMS_P1;PMS_P2;Temp;Humidity;BMP_temperature;BMP_pressure;BME280_temperature;BME280_humidity;BME280_pressure;Samples;Min_cycle;Max_cycle;Signal;HPM_P1;HPM_P2
2022/08/25 00:01:53;;;;;;;3.60;3.30;;;;;;;;;;4181499;28;20025;-62
2022/08/25 00:03:54;;;;;;;3.00;2.80;;;;;;;;;;4181382;28;20041;-61
2022/08/25 00:05:55;;;;;;;3.35;3.13;;;;;;;;;;4183024;28;20024;-61
2022/08/25 00:07:56;;;;;;;3.28;2.97;;;;;;;;;;4182880;28;20043;-61
2022/08/25 00:09:57;;;;;;;6.10;3.53;;;;;;;;;;4182077;28;20473;-62
2022/08/25 00:11:58;;;;;;;3.03;2.83;;;;;;;;;;4181991;28;20052;-61
2022/08/25 00:14:00;;;;;;;3.40;3.10;;;;;;;;;;4182192;28;20044;-62
2022/08/25 00:16:01;;;;;;;2.78;2.55;;;;;;;;;;4181943;28;20091;-61
2022/08/25 00:18:04;;;;;;;3.20;2.90;;;;;;;;;;4182286;28;20131;-62
2022/08/25 00:20:05;;;;;;;3.13;2.90;;;;;;;;;;4164496;28;20045;-61
2022/08/25 00:22:06;;;;;;;3.20;3.00;;;;;;;;;;4181982;28;20039;-61
2022/08/25 00:24:08;;;;;;;3.35;3.13;;;;;;;;;;4181902;28;20538;-62
2022/08/25 00:26:09;;;;;;;3.00;2.80;;;;;;;;;;4182041;28;20033;-62
2022/08/25 00:28:10;;;;;;;3.15;2.88;;;;;;;;;;4181631;28;20538;-61
2022/08/25 00:30:13;;;;;;;3.40;3.10;;;;;;;;;;4181521;28;20032;-61
2022/08/25 00:32:17;;;;;;;3.90;2.92;;;;;;;;;;4181960;28;20041;-61
2022/08/25 00:34:21;;;;;;;3.50;3.20;;;;;;;;;;4181770;28;20032;-61
2022/08/25 00:36:22;;;;;;;3.10;2.90;;;;;;;;;;4181289;28;20090;-61
2022/08/25 00:38:23;;;;;;;3.40;3.10;;;;;;;;;;4181461;28;20057;-61
2022/08/25 00:40:27;;;;;;;3.35;3.05;;;;;;;;;;4181555;28;20094;-61
2022/08/25 00:42:28;;;;;;;3.35;3.08;;;;;;;;;;4181395;28;20424;-62
2022/08/25 00:44:30;;;;;;;3.92;3.53;;;;;;;;;;4181083;28;20033;-62
2022/08/25 00:46:36;;;;;;;3.63;3.33;;;;;;;;;;4181418;28;20095;-62
2022/08/25 00:48:41;;;;;;;3.38;3.08;;;;;;;;;;4181794;28;20060;-62
2022/08/25 00:50:42;;;;;;;3.45;3.15;;;;;;;;;;4181341;28;20040;-61
2022/08/25 00:52:45;;;;;;;3.47;3.22;;;;;;;;;;4182304;28;20052;-61
2022/08/25 00:54:51;;;;;;;3.45;3.15;;;;;;;;;;4181453;28;20033;-61
2022/08/25 00:56:52;;;;;;;3.72;3.42;;;;;;;;;;4164024;28;20072;-61
2022/08/25 00:58:53;;;;;;;3.22;2.92;;;;;;;;;;4181104;28;20443;-62
2022/08/25 01:00:58;;;;;;;3.85;3.40;;;;;;;;;;4181112;28;20037;-61
2022/08/25 01:02:59;;;;;;;;;;;;;;;;;;4181664;28;20087;-61
2022/08/25 01:04:59;;;;;;;3.80;3.42;;;;;;;;;;4181679;28;19912;-62
2022/08/25 01:07:01;;;;;;;3.50;3.20;;;;;;;;;;4181146;28;20043;-60
2022/08/25 01:09:02;;;;;;;3.38;3.10;;;;;;;;;;4180952;28;20037;-61
2022/08/25 01:11:05;;;;;;;2.90;2.70;;;;;;;;;;4180631;28;20033;-61
2022/08/25 01:13:41;;;;;;;3.30;3.00;;;;;;;;;;4181134;28;20377;-61
2022/08/25 01:15:42;;;;;;;3.45;3.15;;;;;;;;;;4098310;29;20031;-61
2022/08/25 01:17:53;;;;;;;3.50;3.17;;;;;;;;;;4143088;28;20036;-60
2022/08/25 01:19:54;;;;;;;3.55;3.15;;;;;;;;;;4181178;28;20037;-61
2022/08/25 01:21:55;;;;;;;3.30;3.00;;;;;;;;;;4180575;28;20041;-61
2022/08/25 01:23:57;;;;;;;3.53;3.22;;;;;;;;;;4181099;28;20400;-62
2022/08/25 01:26:03;;;;;;;3.60;3.30;;;;;;;;;;4181579;28;20097;-62
2022/08/25 01:28:04;;;;;;;3.33;3.03;;;;;;;;;;4181254;28;20025;-61
2022/08/25 01:30:05;;;;;;;3.30;3.00;;;;;;;;;;4180241;28;20029;-61
2022/08/25 01:32:12;;;;;;;3.55;3.25;;;;;;;;;;4180667;28;20370;-61
2022/08/25 01:34:13;;;;;;;3.63;3.33;;;;;;;;;;4180735;28;20033;-61
2022/08/25 01:36:16;;;;;;;3.17;2.88;;;;;;;;;;4180988;28;20041;-61
2022/08/25 01:38:19;;;;;;;3.30;3.03;;;;;;;;;;4180678;28;20025;-62
2022/08/25 01:40:21;;;;;;;3.50;3.20;;;;;;;;;;4180372;28;20040;-62
2022/08/25 01:42:30;;;;;;;3.60;3.28;;;;;;;;;;4180171;28;20037;-61
2022/08/25 01:44:32;;;;;;;3.15;2.95;;;;;;;;;;4180672;28;20083;-62
2022/08/25 01:46:33;;;;;;;3.55;3.25;;;;;;;;;;4180510;28;20447;-62
2022/08/25 01:48:36;;;;;;;3.08;2.88;;;;;;;;;;4180841;28;20029;-62
2022/08/25 01:50:37;;;;;;;3.78;3.47;;;;;;;;;;4179967;28;20033;-61
2022/08/25 01:52:55;;;;;;;3.17;2.95;;;;;;;;;;4180319;28;20044;-62
2022/08/25 01:54:56;;;;;;;3.35;3.05;;;;;;;;;;4180577;28;20041;-61
2022/08/25 01:56:59;;;;;;;3.08;2.88;;;;;;;;;;4181362;28;20072;-61
2022/08/25 01:59:00;;;;;;;4.95;2.95;;;;;;;;;;4180809;28;20036;-62
2022/08/25 02:01:02;;;;;;;3.72;3.42;;;;;;;;;;4180124;28;20354;-61
2022/08/25 02:03:03;;;;;;;2.85;2.65;;;;;;;;;;4180327;28;20163;-61
2022/08/25 02:05:07;;;;;;;2.95;2.72;;;;;;;;;;4180421;28;20147;-61
2022/08/25 02:07:08;;;;;;;3.83;3.53;;;;;;;;;;4181157;28;20025;-62
2022/08/25 02:09:11;;;;;;;3.33;3.03;;;;;;;;;;4180085;28;20316;-62
2022/08/25 02:11:16;;;;;;;3.45;3.03;;;;;;;;;;4179652;28;20033;-62
2022/08/25 02:13:17;;;;;;;3.08;2.88;;;;;;;;;;4180260;28;20040;-62
2022/08/25 02:15:18;;;;;;;3.50;3.20;;;;;;;;;;4180485;28;20438;-62
2022/08/25 02:17:19;;;;;;;3.50;3.20;;;;;;;;;;4180608;28;20033;-62
2022/08/25 02:19:21;;;;;;;4.25;2.92;;;;;;;;;;4181082;28;20522;-61
2022/08/25 02:21:22;;;;;;;3.63;3.33;;;;;;;;;;4179977;28;20079;-60
2022/08/25 02:23:22;;;;;;;3.38;3.08;;;;;;;;;;4179270;28;20391;-62
2022/08/25 02:25:26;;;;;;;4.18;3.03;;;;;;;;;;4182947;28;20104;-62
2022/08/25 02:27:27;;;;;;;3.17;2.95;;;;;;;;;;4193564;28;20035;-61
2022/08/25 02:29:30;;;;;;;3.38;2.90;;;;;;;;;;4202602;28;20052;-61
2022/08/25 02:31:32;;;;;;;3.65;3.35;;;;;;;;;;4201668;28;20049;-61
2022/08/25 02:33:33;;;;;;;3.08;2.88;;;;;;;;;;4211857;28;20044;-62
2022/08/25 02:35:34;;;;;;;5.78;3.10;;;;;;;;;;4213779;28;20479;-62
2022/08/25 02:37:35;;;;;;;6.63;3.47;;;;;;;;;;4213505;28;20078;-62
2022/08/25 02:39:36;;;;;;;9.77;3.25;;;;;;;;;;4187314;28;20033;-62
2022/08/25 02:41:37;;;;;;;5.97;3.17;;;;;;;;;;4179584;28;20037;-61
2022/08/25 02:43:42;;;;;;;9.25;3.05;;;;;;;;;;4202082;28;20070;-62
2022/08/25 02:45:43;;;;;;;7.78;3.60;;;;;;;;;;4211283;28;20093;-61
2022/08/25 02:47:44;;;;;;;7.93;3.20;;;;;;;;;;4213543;28;20028;-61
2022/08/25 02:49:45;;;;;;;9.73;3.58;;;;;;;;;;4213586;28;20081;-61
2022/08/25 02:51:49;;;;;;;5.38;3.50;;;;;;;;;;4213216;28;20102;-61
2022/08/25 02:53:49;;;;;;;5.35;3.40;;;;;;;;;;4214050;28;20421;-62
2022/08/25 02:55:50;;;;;;;6.20;3.63;;;;;;;;;;4199095;28;20124;-61
2022/08/25 02:57:51;;;;;;;7.40;3.40;;;;;;;;;;4180189;28;20051;-61
2022/08/25 02:59:53;;;;;;;5.70;3.33;;;;;;;;;;4180536;28;20037;-61
2022/08/25 03:01:54;;;;;;;7.28;3.47;;;;;;;;;;4180218;28;20098;-61
2022/08/25 03:03:55;;;;;;;4.22;3.20;;;;;;;;;;4180507;28;20726;-61
2022/08/25 03:05:56;;;;;;;8.85;2.95;;;;;;;;;;4180245;28;20033;-61
2022/08/25 03:07:57;;;;;;;6.40;3.50;;;;;;;;;;4180128;28;21127;-61
2022/08/25 03:10:02;;;;;;;6.57;3.58;;;;;;;;;;4180013;28;20120;-61
2022/08/25 03:12:04;;;;;;;8.25;3.42;;;;;;;;;;4201155;28;20169;-60
2022/08/25 03:14:05;;;;;;;5.32;3.50;;;;;;;;;;4179783;28;20447;-61
2022/08/25 03:16:07;;;;;;;6.55;3.45;;;;;;;;;;4179811;28;20035;-61
2022/08/25 03:18:08;;;;;;;5.05;3.55;;;;;;;;;;4193772;28;20464;-61
2022/08/25 03:20:11;;;;;;;6.28;3.38;;;;;;;;;;4195933;28;20116;-61
2022/08/25 03:22:12;;;;;;;4.55;3.40;;;;;;;;;;4196683;28;20427;-60
2022/08/25 03:24:12;;;;;;;4.40;3.58;;;;;;;;;;4197163;28;20033;-61
2022/08/25 03:28:32;;;;;;;4.07;3.25;;;;;;;;;;4197685;28;20028;-61
2022/08/25 03:30:33;;;;;;;4.65;3.05;;;;;;;;;;4183609;28;20062;-61
2022/08/25 03:32:37;;;;;;;5.40;3.10;;;;;;;;;;4179911;28;20039;-61
2022/08/25 03:34:38;;;;;;;5.75;3.42;;;;;;;;;;4180215;28;20079;-61
2022/08/25 03:36:39;;;;;;;4.72;3.40;;;;;;;;;;4213972;28;20123;-61
2022/08/25 03:38:45;;;;;;;5.95;3.10;;;;;;;;;;4215752;28;20081;-61
2022/08/25 03:40:46;;;;;;;5.13;3.00;;;;;;;;;;4216361;28;20024;-61
2022/08/25 03:42:47;;;;;;;3.88;3.35;;;;;;;;;;4215926;28;20036;-61
2022/08/25 03:44:48;;;;;;;3.38;3.08;;;;;;;;;;4215990;28;20077;-61
2022/08/25 03:46:50;;;;;;;3.92;3.40;;;;;;;;;;4212104;28;20060;-60
2022/08/25 03:48:51;;;;;;;5.82;3.20;;;;;;;;;;4215226;28;20070;-61
2022/08/25 03:50:53;;;;;;;6.30;3.20;;;;;;;;;;4215473;28;20032;-61
2022/08/25 03:52:55;;;;;;;3.83;3.22;;;;;;;;;;4214141;28;20040;-61
2022/08/25 03:54:58;;;;;;;7.75;3.00;;;;;;;;;;4215689;28;20082;-61
2022/08/25 03:56:59;;;;;;;16.83;3.67;;;;;;;;;;4215673;28;20812;-61
2022/08/25 03:59:00;;;;;;;10.77;4.03;;;;;;;;;;4215722;28;20489;-61
2022/08/25 04:01:01;;;;;;;7.05;3.38;;;;;;;;;;4215594;28;20036;-59
2022/08/25 04:03:02;;;;;;;5.68;3.65;;;;;;;;;;4214720;28;20039;-61
2022/08/25 04:05:06;;;;;;;6.78;3.90;;;;;;;;;;4182398;28;20498;-61
2022/08/25 04:07:07;;;;;;;4.97;3.72;;;;;;;;;;4182081;28;20087;-60
2022/08/25 04:09:08;;;;;;;4.43;3.10;;;;;;;;;;4182458;28;20044;-61
2022/08/25 04:11:11;;;;;;;4.50;3.40;;;;;;;;;;4181867;28;20037;-61
2022/08/25 04:13:15;;;;;;;4.70;3.45;;;;;;;;;;4176642;28;20083;-61
2022/08/25 04:15:16;;;;;;;8.20;3.47;;;;;;;;;;4182109;28;20374;-60
2022/08/25 04:17:17;;;;;;;3.88;3.10;;;;;;;;;;4181751;28;20036;-61
2022/08/25 04:19:19;;;;;;;8.93;3.13;;;;;;;;;;4185867;28;20032;-61
2022/08/25 04:21:20;;;;;;;4.85;3.35;;;;;;;;;;4187422;28;20087;-61
2022/08/25 04:23:21;;;;;;;7.75;3.15;;;;;;;;;;4182394;28;20033;-61
2022/08/25 04:25:22;;;;;;;5.38;3.35;;;;;;;;;;4189232;28;20058;-60
2022/08/25 04:27:23;;;;;;;7.35;3.85;;;;;;;;;;4197260;28;20418;-61
2022/08/25 04:29:24;;;;;;;5.68;3.35;;;;;;;;;;4209544;28;20112;-60
2022/08/25 04:31:26;;;;;;;5.03;3.08;;;;;;;;;;4198725;28;20028;-60
2022/08/25 04:33:27;;;;;;;5.70;2.97;;;;;;;;;;4200601;28;20036;-61
2022/08/25 04:35:28;;;;;;;3.42;3.00;;;;;;;;;;4215308;28;20433;-60
2022/08/25 04:37:28;;;;;;;4.95;2.90;;;;;;;;;;4207302;28;20033;-61
2022/08/25 04:39:29;;;;;;;5.97;3.10;;;;;;;;;;4181592;28;20526;-61
2022/08/25 04:41:30;;;;;;;4.53;3.00;;;;;;;;;;4181336;28;20033;-62
2022/08/25 04:43:32;;;;;;;3.40;3.10;;;;;;;;;;4182479;28;20029;-61
2022/08/25 04:45:37;;;;;;;5.68;3.08;;;;;;;;;;4185144;28;20118;-61
2022/08/25 04:47:40;;;;;;;6.28;3.55;;;;;;;;;;4215008;28;20409;-61
2022/08/25 04:49:41;;;;;;;9.18;3.33;;;;;;;;;;4214971;28;20040;-61
2022/08/25 04:51:42;;;;;;;4.80;3.10;;;;;;;;;;4214464;28;20040;-61
2022/08/25 04:53:43;;;;;;;5.28;2.92;;;;;;;;;;4214929;28;20111;-61
2022/08/25 04:55:45;;;;;;;3.40;3.10;;;;;;;;;;4186026;28;20044;-61
2022/08/25 04:57:48;;;;;;;3.20;2.90;;;;;;;;;;4181568;28;20083;-61
2022/08/25 04:59:51;;;;;;;5.45;2.83;;;;;;;;;;4181864;28;20140;-61
2022/08/25 05:01:52;;;;;;;4.20;3.60;;;;;;;;;;4181196;28;20433;-61
2022/08/25 05:03:54;;;;;;;5.38;3.28;;;;;;;;;;4181603;28;20391;-60
2022/08/25 05:05:55;;;;;;;3.45;3.15;;;;;;;;;;4181571;28;20469;-61
2022/08/25 05:07:56;;;;;;;3.40;2.90;;;;;;;;;;4182125;28;20058;-61
2022/08/25 05:09:57;;;;;;;4.13;3.22;;;;;;;;;;4181647;28;20064;-61
2022/08/25 05:11:58;;;;;;;3.05;2.85;;;;;;;;;;4181806;28;20044;-61
2022/08/25 05:14:01;;;;;;;5.57;3.38;;;;;;;;;;4163936;28;20417;-61
2022/08/25 05:16:02;;;;;;;4.55;2.97;;;;;;;;;;4197914;28;20121;-60
2022/08/25 05:18:04;;;;;;;4.68;3.50;;;;;;;;;;4197705;28;20028;-60
2022/08/25 05:20:05;;;;;;;8.50;3.65;;;;;;;;;;4197073;28;20102;-60
2022/08/25 05:22:06;;;;;;;4.55;3.40;;;;;;;;;;4202513;28;20529;-61
2022/08/25 05:24:09;;;;;;;3.70;3.40;;;;;;;;;;4214696;28;20036;-61
2022/08/25 05:26:14;;;;;;;3.63;3.33;;;;;;;;;;4214552;28;20085;-61
2022/08/25 05:28:15;;;;;;;3.67;3.17;;;;;;;;;;4191725;28;20369;-61
2022/08/25 05:30:16;;;;;;;3.47;3.17;;;;;;;;;;4189343;28;20094;-61
2022/08/25 05:32:20;;;;;;;3.17;2.80;;;;;;;;;;4182498;28;20041;-61
2022/08/25 05:34:26;;;;;;;4.43;3.60;;;;;;;;;;4180864;28;20087;-61
2022/08/25 05:36:28;;;;;;;4.78;3.72;;;;;;;;;;4195898;28;20462;-61
2022/08/25 05:38:29;;;;;;;3.28;2.83;;;;;;;;;;4200968;28;20090;-61
2022/08/25 05:40:30;;;;;;;3.25;2.95;;;;;;;;;;4205274;28;20052;-61
2022/08/25 05:42:31;;;;;;;3.90;2.65;;;;;;;;;;4197152;28;20094;-61
2022/08/25 05:44:32;;;;;;;3.30;2.72;;;;;;;;;;4205148;28;20056;-61
2022/08/25 05:46:33;;;;;;;3.20;2.75;;;;;;;;;;4198248;28;20074;-60
2022/08/25 05:48:34;;;;;;;5.43;2.95;;;;;;;;;;4182411;28;20112;-61
2022/08/25 05:50:35;;;;;;;3.90;3.08;;;;;;;;;;4180773;28;20040;-61
2022/08/25 05:52:36;;;;;;;3.65;3.35;;;;;;;;;;4202427;28;20693;-61
2022/08/25 05:54:40;;;;;;;4.20;3.35;;;;;;;;;;4196226;28;20036;-61
2022/08/25 05:56:41;;;;;;;4.55;3.47;;;;;;;;;;4196297;28;20044;-61
2022/08/25 05:58:42;;;;;;;3.25;2.95;;;;;;;;;;4213599;28;20108;-60
2022/08/25 06:00:44;;;;;;;5.00;3.35;;;;;;;;;;4213427;28;20071;-60
2022/08/25 06:02:46;;;;;;;3.13;2.90;;;;;;;;;;4200111;28;20083;-61
2022/08/25 06:04:47;;;;;;;3.53;3.22;;;;;;;;;;4180437;28;20040;-61
2022/08/25 06:06:52;;;;;;;3.47;2.65;;;;;;;;;;4180745;28;20369;-61
2022/08/25 06:08:52;;;;;;;;;;;;;;;;;;4180516;28;20071;-61
2022/08/25 06:10:53;;;;;;;4.85;3.42;;;;;;;;;;4180237;28;20356;-61
2022/08/25 06:12:54;;;;;;;3.42;3.13;;;;;;;;;;4180485;28;20520;-60
2022/08/25 06:14:58;;;;;;;3.13;2.72;;;;;;;;;;4180697;28;20098;-61
2022/08/25 06:17:01;;;;;;;3.47;3.17;;;;;;;;;;4180750;28;20075;-61
2022/08/25 06:19:03;;;;;;;3.47;3.13;;;;;;;;;;4180626;28;20033;-60
2022/08/25 06:21:13;;;;;;;4.32;2.95;;;;;;;;;;4196012;28;20102;-60
2022/08/25 06:23:14;;;;;;;3.35;3.00;;;;;;;;;;4196836;28;20442;-61
2022/08/25 06:25:17;;;;;;;3.20;2.90;;;;;;;;;;4180692;28;20079;-61
2022/08/25 06:27:18;;;;;;;3.22;2.92;;;;;;;;;;4179633;28;20091;-60
2022/08/25 06:29:19;;;;;;;3.72;3.42;;;;;;;;;;4180874;28;20484;-61
2022/08/25 06:31:21;;;;;;;3.45;3.15;;;;;;;;;;4180172;28;21166;-61
2022/08/25 06:33:24;;;;;;;3.90;3.60;;;;;;;;;;4180350;28;20045;-61
2022/08/25 06:35:26;;;;;;;3.75;3.40;;;;;;;;;;4178971;28;20033;-61
2022/08/25 06:37:27;;;;;;;2.97;2.72;;;;;;;;;;4181009;28;20485;-61
2022/08/25 06:39:28;;;;;;;3.58;3.28;;;;;;;;;;4180457;28;20072;-61
2022/08/25 06:41:29;;;;;;;3.67;3.20;;;;;;;;;;4180695;28;20036;-61
2022/08/25 06:43:33;;;;;;;4.28;2.92;;;;;;;;;;4180383;28;20033;-61
2022/08/25 06:45:34;;;;;;;3.88;3.25;;;;;;;;;;4180130;28;20091;-61
2022/08/25 06:47:35;;;;;;;3.40;3.10;;;;;;;;;;4180807;28;20460;-61
2022/08/25 06:49:36;;;;;;;3.83;3.03;;;;;;;;;;4180008;28;20033;-61
2022/08/25 06:51:41;;;;;;;3.28;2.97;;;;;;;;;;4183486;28;20032;-61
2022/08/25 06:53:41;;;;;;;;;;;;;;;;;;4183060;28;20049;-61
2022/08/25 06:55:57;;;;;;;3.30;3.00;;;;;;;;;;4180185;28;19905;-61
2022/08/25 06:57:57;;;;;;;;;;;;;;;;;;4185685;28;20539;-61
2022/08/25 06:59:58;;;;;;;3.47;3.17;;;;;;;;;;4180543;28;19999;-61
2022/08/25 07:01:59;;;;;;;3.60;3.30;;;;;;;;;;4181227;28;20037;-61
2022/08/25 07:04:01;;;;;;;3.20;3.00;;;;;;;;;;4186406;28;20118;-61
2022/08/25 07:06:02;;;;;;;2.88;2.67;;;;;;;;;;4182785;28;20029;-60
2022/08/25 07:08:03;;;;;;;3.33;3.03;;;;;;;;;;4191658;28;20398;-61
2022/08/25 07:10:07;;;;;;;3.53;3.10;;;;;;;;;;4185941;28;20020;-61
2022/08/25 07:12:08;;;;;;;3.03;2.80;;;;;;;;;;4196550;28;20086;-61
2022/08/25 07:14:10;;;;;;;3.28;2.97;;;;;;;;;;4188957;28;20464;-60
2022/08/25 07:16:14;;;;;;;3.25;3.00;;;;;;;;;;4199617;28;20092;-61
2022/08/25 07:18:15;;;;;;;3.10;2.83;;;;;;;;;;4193652;28;20037;-61
2022/08/25 07:20:16;;;;;;;3.20;2.90;;;;;;;;;;4181223;28;20025;-61
2022/08/25 07:22:19;;;;;;;3.25;2.95;;;;;;;;;;4186375;28;20037;-61
2022/08/25 07:24:23;;;;;;;3.03;2.72;;;;;;;;;;4196316;28;20415;-61
2022/08/25 07:26:25;;;;;;;3.35;3.05;;;;;;;;;;4188291;28;20484;-60
2022/08/25 07:28:26;;;;;;;3.30;3.03;;;;;;;;;;4191012;28;20089;-60
2022/08/25 07:30:27;;;;;;;3.40;3.10;;;;;;;;;;4185090;28;20040;-60
2022/08/25 07:32:30;;;;;;;2.90;2.70;;;;;;;;;;4182897;28;20435;-61
2022/08/25 07:36:51;;;;;;;3.40;3.10;;;;;;;;;;4200413;28;20028;-61
2022/08/25 07:38:52;;;;;;;3.08;2.80;;;;;;;;;;4200170;28;20028;-61
2022/08/25 07:41:02;;;;;;;3.60;3.30;;;;;;;;;;4198836;28;20384;-61
2022/08/25 07:43:06;;;;;;;3.63;3.15;;;;;;;;;;4199065;28;20037;-61
2022/08/25 07:45:10;;;;;;;3.20;3.00;;;;;;;;;;4191123;28;20087;-60
2022/08/25 07:47:11;;;;;;;3.80;3.47;;;;;;;;;;4199329;28;20024;-61
2022/08/25 07:49:12;;;;;;;3.20;2.90;;;;;;;;;;4199078;28;20098;-61
2022/08/25 07:51:18;;;;;;;3.10;2.80;;;;;;;;;;4198568;28;20032;-61
2022/08/25 07:53:19;;;;;;;3.20;2.90;;;;;;;;;;4199100;28;20044;-61
2022/08/25 07:55:20;;;;;;;3.45;3.05;;;;;;;;;;4199212;28;20793;-61
2022/08/25 07:57:23;;;;;;;4.07;3.08;;;;;;;;;;4199284;28;20097;-60
2022/08/25 07:59:24;;;;;;;3.08;2.78;;;;;;;;;;4198969;28;20475;-60
2022/08/25 08:01:25;;;;;;;2.90;2.70;;;;;;;;;;4195545;28;20033;-60
2022/08/25 08:03:26;;;;;;;3.33;3.03;;;;;;;;;;4183105;28;20415;-60
2022/08/25 08:05:27;;;;;;;3.30;3.00;;;;;;;;;;4182168;28;20033;-61
2022/08/25 08:07:30;;;;;;;2.95;2.72;;;;;;;;;;4182229;28;20029;-61
2022/08/25 08:09:31;;;;;;;3.20;2.90;;;;;;;;;;4182421;28;20095;-60
2022/08/25 08:11:39;;;;;;;3.15;2.85;;;;;;;;;;4181779;28;20480;-61
2022/08/25 08:13:40;;;;;;;3.10;2.90;;;;;;;;;;4181926;28;20431;-61
2022/08/25 08:15:44;;;;;;;3.15;2.85;;;;;;;;;;4189323;28;20040;-61
2022/08/25 08:17:45;;;;;;;3.00;2.80;;;;;;;;;;4197199;28;20504;-60
2022/08/25 08:19:46;;;;;;;3.60;3.30;;;;;;;;;;4189142;28;20029;-61
2022/08/25 08:21:48;;;;;;;3.10;2.90;;;;;;;;;;4188948;28;20043;-60
2022/08/25 08:23:50;;;;;;;3.42;3.13;;;;;;;;;;4196255;28;20102;-61
2022/08/25 08:25:54;;;;;;;3.22;2.92;;;;;;;;;;4182207;28;20037;-61
2022/08/25 08:27:55;;;;;;;3.77;3.47;;;;;;;;;;4174754;28;20435;-61
2022/08/25 08:30:08;;;;;;;3.30;3.10;;;;;;;;;;4185098;28;20033;-61
2022/08/25 08:32:12;;;;;;;3.28;3.00;;;;;;;;;;4181793;28;20558;-61
2022/08/25 08:34:13;;;;;;;4.22;2.92;;;;;;;;;;4187423;28;20326;-61
2022/08/25 08:36:13;;;;;;;3.00;2.80;;;;;;;;;;4192732;28;20032;-61
2022/08/25 08:38:14;;;;;;;3.15;2.90;;;;;;;;;;4181646;28;20399;-61
2022/08/25 08:40:17;;;;;;;3.15;2.85;;;;;;;;;;4195354;28;20082;-61
2022/08/25 08:42:28;;;;;;;3.42;3.13;;;;;;;;;;4183895;28;20431;-61
2022/08/25 08:44:48;;;;;;;3.50;3.13;;;;;;;;;;4188458;28;20419;-61
2022/08/25 08:46:58;;;;;;;4.07;3.33;;;;;;;;;;4195924;28;20090;-61
2022/08/25 08:49:00;;;;;;;3.10;2.80;;;;;;;;;;4196984;28;20040;-61
2022/08/25 08:51:10;;;;;;;2.95;2.70;;;;;;;;;;4195804;28;20045;-61
2022/08/25 08:53:14;;;;;;;3.05;2.72;;;;;;;;;;4196581;28;20044;-62
2022/08/25 08:55:17;;;;;;;3.17;2.88;;;;;;;;;;4198440;28;20032;-61
2022/08/25 08:57:24;;;;;;;3.85;3.30;;;;;;;;;;4184866;28;20087;-61
2022/08/25 08:59:26;;;;;;;3.90;3.00;;;;;;;;;;4180826;28;20098;-60
2022/08/25 09:01:33;;;;;;;3.65;3.33;;;;;;;;;;4194042;28;20086;-61
2022/08/25 09:03:38;;;;;;;3.22;2.92;;;;;;;;;;4182300;28;20106;-61
2022/08/25 09:05:47;;;;;;;3.80;3.20;;;;;;;;;;4180824;28;20454;-61
2022/08/25 09:07:51;;;;;;;3.40;3.10;;;;;;;;;;4181467;28;20476;-60
2022/08/25 09:09:55;;;;;;;3.22;2.92;;;;;;;;;;4197922;28;20341;-61
2022/08/25 09:12:15;;;;;;;3.95;2.92;;;;;;;;;;4195413;28;20054;-61
2022/08/25 09:14:34;;;;;;;3.30;3.10;;;;;;;;;;4181146;28;20118;-61
2022/08/25 09:16:54;;;;;;;3.40;3.10;;;;;;;;;;4186713;28;20033;-61
2022/08/25 09:19:13;;;;;;;3.30;2.95;;;;;;;;;;4186989;28;20439;-61
2022/08/25 09:21:34;;;;;;;3.20;2.90;;;;;;;;;;4180560;28;20087;-61
2022/08/25 09:23:35;;;;;;;3.03;2.83;;;;;;;;;;4195667;28;20098;-61
2022/08/25 09:26:00;;;;;;;3.55;3.25;;;;;;;;;;4181315;28;20032;-61
2022/08/25 09:28:03;;;;;;;3.35;2.90;;;;;;;;;;4182709;28;20094;-61
2022/08/25 09:30:04;;;;;;;3.13;2.83;;;;;;;;;;4194303;28;20032;-60
2022/08/25 09:32:10;;;;;;;3.35;3.05;;;;;;;;;;4184780;28;20041;-61
2022/08/25 09:34:15;;;;;;;3.40;3.10;;;;;;;;;;4193230;28;20052;-61
2022/08/25 09:36:16;;;;;;;2.80;2.50;;;;;;;;;;4186813;28;20025;-61
2022/08/25 09:38:18;;;;;;;3.00;2.75;;;;;;;;;;4195143;28;20056;-61
2022/08/25 09:40:24;;;;;;;3.10;2.80;;;;;;;;;;4196216;28;20029;-61
2022/08/25 09:42:44;;;;;;;3.58;3.28;;;;;;;;;;4182025;28;20082;-61
2022/08/25 09:44:45;;;;;;;3.40;3.10;;;;;;;;;;4181531;28;20049;-61
2022/08/25 09:47:06;;;;;;;3.00;2.80;;;;;;;;;;4183756;28;20086;-61
2022/08/25 09:49:11;;;;;;;3.55;3.22;;;;;;;;;;4195223;28;20036;-60
2022/08/25 09:51:30;;;;;;;3.45;2.83;;;;;;;;;;4195795;28;20054;-61
2022/08/25 09:53:32;;;;;;;3.30;3.00;;;;;;;;;;4194979;28;20493;-61
2022/08/25 09:55:33;;;;;;;3.13;2.90;;;;;;;;;;4196485;28;20036;-61
2022/08/25 09:57:51;;;;;;;2.92;2.72;;;;;;;;;;4194736;28;20040;-60
2022/08/25 09:59:52;;;;;;;3.30;3.00;;;;;;;;;;4195113;28;20090;-61
2022/08/25 10:01:57;;;;;;;3.28;3.00;;;;;;;;;;4194142;28;20059;-62
2022/08/25 10:03:58;;;;;;;;;;;;;;;;;;4180810;28;20036;-61
2022/08/25 10:06:02;;;;;;;2.88;2.67;;;;;;;;;;4180326;28;19909;-61
2022/08/25 10:08:13;;;;;;;3.50;3.30;;;;;;;;;;4180815;28;20514;-60
2022/08/25 10:10:33;;;;;;;4.47;3.22;;;;;;;;;;4191361;28;20086;-61
2022/08/25 10:12:34;;;;;;;3.10;2.80;;;;;;;;;;4181645;28;20029;-61
2022/08/25 10:14:39;;;;;;;3.33;3.03;;;;;;;;;;4184611;28;20049;-62
2022/08/25 10:16:40;;;;;;;3.13;2.83;;;;;;;;;;4187916;28;20090;-61
2022/08/25 10:18:41;;;;;;;3.58;3.28;;;;;;;;;;4184192;28;20423;-60
2022/08/25 10:20:42;;;;;;;3.40;3.10;;;;;;;;;;4179205;28;20040;-61
2022/08/25 10:22:43;;;;;;;3.22;3.03;;;;;;;;;;4190599;28;20369;-60
2022/08/25 10:24:44;;;;;;;3.67;3.38;;;;;;;;;;4196750;28;20036;-61
2022/08/25 10:26:54;;;;;;;3.33;3.03;;;;;;;;;;4187349;28;20543;-61
2022/08/25 10:28:58;;;;;;;3.70;3.40;;;;;;;;;;4185495;28;20032;-61
2022/08/25 10:31:11;;;;;;;3.50;3.20;;;;;;;;;;4179937;28;20040;-61
2022/08/25 10:33:28;;;;;;;3.58;3.28;;;;;;;;;;4179828;28;20049;-61
2022/08/25 10:35:54;;;;;;;3.10;2.80;;;;;;;;;;4183660;28;20032;-61
2022/08/25 10:38:10;;;;;;;3.50;3.15;;;;;;;;;;4191801;28;20041;-61
2022/08/25 10:40:11;;;;;;;3.00;2.80;;;;;;;;;;4196216;28;20044;-61
2022/08/25 10:42:12;;;;;;;3.30;3.00;;;;;;;;;;4184781;28;20029;-61
2022/08/25 10:46:46;;;;;;;3.28;2.97;;;;;;;;;;4184805;28;20037;-61
2022/08/25 10:48:56;;;;;;;3.40;3.10;;;;;;;;;;4192364;28;20036;-61
2022/08/25 10:51:07;;;;;;;3.42;3.13;;;;;;;;;;4196799;28;20094;-61
2022/08/25 10:53:19;;;;;;;3.05;2.85;;;;;;;;;;4183411;28;20045;-61
2022/08/25 10:55:32;;;;;;;3.42;3.13;;;;;;;;;;4183441;28;20107;-61
2022/08/25 10:57:38;;;;;;;3.40;3.13;;;;;;;;;;4182818;28;20032;-61
2022/08/25 11:00:01;;;;;;;3.55;3.25;;;;;;;;;;4191387;28;20028;-61
2022/08/25 11:02:02;;;;;;;3.40;3.10;;;;;;;;;;4187741;28;20041;-61
2022/08/25 11:04:14;;;;;;;3.53;3.20;;;;;;;;;;4186012;28;20409;-60
2022/08/25 11:06:18;;;;;;;3.50;3.00;;;;;;;;;;4197915;28;20021;-61
2022/08/25 11:08:31;;;;;;;4.00;3.60;;;;;;;;;;4182709;28;20048;-61
2022/08/25 11:11:04;;;;;;;3.35;3.05;;;;;;;;;;4182267;28;20098;-61
2022/08/25 11:13:09;;;;;;;3.17;2.90;;;;;;;;;;4136829;28;20098;-60
2022/08/25 11:15:09;;;;;;;;;;;;;;;;;;4187979;28;20087;-61
2022/08/25 11:17:16;;;;;;;3.55;3.25;;;;;;;;;;4188280;28;19909;-61
2022/08/25 11:19:30;;;;;;;3.40;3.10;;;;;;;;;;4188112;28;20037;-61
2022/08/25 11:21:37;;;;;;;3.47;3.20;;;;;;;;;;4195081;28;20132;-61
2022/08/25 11:23:40;;;;;;;3.35;3.05;;;;;;;;;;4199665;28;20077;-61
2022/08/25 11:25:42;;;;;;;3.22;2.90;;;;;;;;;;4204982;28;20384;-61
2022/08/25 11:27:52;;;;;;;3.33;3.00;;;;;;;;;;4193046;28;20090;-61
2022/08/25 11:30:08;;;;;;;3.00;2.80;;;;;;;;;;4200203;28;20520;-61
2022/08/25 11:32:09;;;;;;;2.83;2.63;;;;;;;;;;4199402;28;20086;-61
2022/08/25 11:34:13;;;;;;;3.25;2.92;;;;;;;;;;4199427;28;20048;-61
2022/08/25 11:36:30;;;;;;;3.65;3.30;;;;;;;;;;4207744;28;20024;-65
2022/08/25 11:38:43;;;;;;;3.50;3.20;;;;;;;;;;4215923;28;20036;-61
2022/08/25 11:40:44;;;;;;;3.17;2.97;;;;;;;;;;4215564;28;20036;-64
2022/08/25 11:42:51;;;;;;;3.72;3.35;;;;;;;;;;4203128;28;20051;-62
2022/08/25 11:44:51;;;;;;;3.45;3.15;;;;;;;;;;4182817;28;20033;-61
2022/08/25 11:46:55;;;;;;;3.35;3.05;;;;;;;;;;4191389;28;20039;-61
2022/08/25 11:49:01;;;;;;;3.08;2.88;;;;;;;;;;4183760;28;20123;-61
2022/08/25 11:51:07;;;;;;;3.13;2.83;;;;;;;;;;4182508;28;20086;-61
2022/08/25 11:53:11;;;;;;;3.47;3.17;;;;;;;;;;4197062;28;20067;-61
2022/08/25 11:55:30;;;;;;;3.42;3.13;;;;;;;;;;4182378;28;20036;-61
2022/08/25 11:57:31;;;;;;;3.00;2.80;;;;;;;;;;4195902;28;20044;-61
2022/08/25 11:59:54;;;;;;;3.25;2.95;;;;;;;;;;4187512;28;20369;-61
2022/08/25 12:01:54;;;;;;;4.53;3.20;;;;;;;;;;4183151;28;20742;-61
2022/08/25 12:04:29;;;;;;;3.35;3.05;;;;;;;;;;4185803;28;20041;-61
2022/08/25 12:06:32;;;;;;;3.60;2.90;;;;;;;;;;4185696;28;20051;-61
2022/08/25 12:08:51;;;;;;;4.35;3.17;;;;;;;;;;4193617;28;20109;-61
2022/08/25 12:10:52;;;;;;;2.80;2.58;;;;;;;;;;4198879;28;20537;-61
2022/08/25 12:12:58;;;;;;;3.50;3.20;;;;;;;;;;4191151;28;20040;-61
2022/08/25 12:15:17;;;;;;;3.85;3.38;;;;;;;;;;4215267;28;20040;-61
2022/08/25 12:17:20;;;;;;;3.13;2.90;;;;;;;;;;4193866;28;20045;-61
2022/08/25 12:19:47;;;;;;;3.50;3.20;;;;;;;;;;4183735;28;20037;-61
2022/08/25 12:21:51;;;;;;;3.60;3.30;;;;;;;;;;4203609;28;20040;-61
2022/08/25 12:24:00;;;;;;;3.17;2.88;;;;;;;;;;4210947;28;20032;-61
2022/08/25 12:26:06;;;;;;;4.78;3.33;;;;;;;;;;4208136;28;20032;-61
2022/08/25 12:28:19;;;;;;;4.70;2.65;;;;;;;;;;4181911;28;20087;-61
2022/08/25 12:30:27;;;;;;;3.00;2.70;;;;;;;;;;4181613;28;20041;-61
2022/08/25 12:32:45;;;;;;;6.55;2.70;;;;;;;;;;4181840;28;20091;-61
2022/08/25 12:34:49;;;;;;;3.72;2.95;;;;;;;;;;4185041;28;20054;-60